Timeline UpdatesTrip UpdatesNews PostsPvt PostsTravel TipsAdmin PostsConv PostsFollowed PostsChat RequestsBlog PostsPNR Posts

Disclaimer
Search
 
 
Fri Apr 25, 2014 10:28:03 ISTHomeTrainsΣChainsAtlasPNRForumGalleryNewsFAQTripsMembersLoginFeedback
No Recent News for this Train
Other Trains in the News **new
Latest...
.
Tue Oct 29, 2013 (01:06PM)
⇐ Return Journey: Train# 18646

18645/East Coast Express

Feb 01 2014 (6:14PM)
Change Departure Station:
Change Arrival Station:
Post a Train Travel TipPost a Train Travel Tip **new
Post a Comment/Question/Picture/VideoPost a Comment/Question/Picture/Video
Inaugural Run
Fri May 16, 1975
Pantry/Catering
✕ NO Pantry Car
✓ Catering Avbl
Loco/Rake Reversals
VSKP/Visakhapatnam Junction (8); BZA/Vijayawada Junction (10);
RSA - Rake Sharing
18616/18615 Hatia-Howrah Express-18645/18646 Howrah-Hyderabad East Coast Express.; http://goo.gl/eoVrw
Rake/Coach Composition
HCPV-HCPV-SLR-GS-A1-B1-B2-B3-B4-S11-S10-S9-S8-S7-S6-S5-S4-S3-S2-S1-GS-SLR-ENG.; As seen at SRC by Sabyasachi on 12-12-2012.
Loco
Official Loco Links:- HWH - VSKP :- VSKP WAP-4 /...
Read more...
VSKP WAM-4 VSKP - BZA :- WAP-4/WAM-4 BZA - VSKP :- WAP-4/WAP-7
News    PNR    Forum    Time-Table    Availability    Fare Chart    Map    Arr/Dep History    Trips    Gallery    ΣChains    X/O    Timeline    
Travel Time: 22h 10m    38 halts    Distance: 1143 km    Avg Speed: 51 km/hr
Type: Mail/Express
Zone: SER/South Eastern
Departs @ 19:50 (Avg 31m late)
Platform# 4
SMTWTFS
Bhubaneswar/BBS 
Arrives @ 18:00 +1 night (Avg 17m late)
Platform# 5
SMTWTFS
Secunderabad Junction/SC 

38 halts. 173 intermediate Stations between Bhubaneswar and Secunderabad Junction

Show ALL intermediate Stations  Show Old Time-Table

#CodeStation NameX/OArrivesAvgDepartsAvgHaltPFDay#KmSpeedElevZoneAddress
1HWHKolkata Howrah Junction (23)  -11:45+6221-437.16410mERHowrah 711101, West Bengal
2MCAMecheda (6)X  12:40+1512:42+212m--1-378.83510mSERdist - purba Medinipur, West Bengal
3PKUPanskura Junction (6)X  13:03+1313:04+151m--1-366.4629mSERPanskura, West Bengal
4KGPKharagpur Junction (10)X  13:47+1013:52+115m11-322.07142mSERKharagpur, West Bengal
5BLDABelda  14:22+2114:23+221m--1-286.57624mSERDistrict Paschim Medinipur, West Bengal
6JERJaleswar (4)  14:49+2214:50+241m--1-253.46113mSERJaleswar, Odisha
7BTSBasta (3)  15:09+2415:10+271m--1-234.04416mSERBasta, Odisha
8ROPRupsa Junction (5)XO  15:24+2415:25+241m--1-223.85313mSERRupsa, Odisha
9BLSBalasore (4)  15:45+2315:50+225m--1-206.08419mSERBalasore, Odisha
10SOROSoro  16:14+1916:15+201m--1-172.56314mSERSoro, Odisha
11MKOMarkonaX  16:29+1116:30+121m--1-157.82018mSERMarkuna, Odisha
12BHCBhadrak (4)  17:13+1217:15+132m--1-143.59123mECoRBhadrak, Odisha
13BTVBaitarani Road  17:36+2017:37+201m--1-111.75927mECoRBaitarani, Odisha
14KRIHKorai Halt  17:44+2017:45+201m--1-104.84930mECoRJajapur, Odisha
15JJKRJajpur Keonjhar Road (4)  17:51+2017:52+211m--1-99.97836mECoRJajpur, Odisha
16DNMDhanmandal (3)X  18:20+2318:21+241m--1-63.36338mECoRDhanmanda, Odisha
17CTCCuttack (5)X  18:55+2719:00+315m31-27.94328mECoRCuttack, Odisha
18BRAGBarang  19:17+3119:18+321m--1-15.73527mECoRDist - Cuttack, Odisha
19BBS»Bhubaneswar (4)»X  19:45+3119:50+315m410.03840mECoRBhubaneshwar, Odisha
20KURKhurda Road Junction (7)X  20:20+2820:35+2715m8118.97225mECoRKhordha, Odisha
21NKPNirakarpur  20:57+2920:58+291m--145.47321mECoRNirakarpur, Odisha
22KAPGKalupara Ghat  21:12+3121:13+311m3162.37510mECoRChandeswar, Odisha
23BALUBalugaon (3)  21:35+3421:36+351m2190.05411mECoR752030, Odisha
24CLKAChilka  21:44+3521:45+351m--197.36725mECoRBarkul, Odisha
25KITKhallikot (3)  21:54+3421:55+341m--1107.28013mECoRKhallikot, Odisha
26CAPChatrapurX  22:23+3522:24+361m--1144.68036mECoRChatrapur, Odisha
27BAMBrahmapur (3)O  22:40+3722:50+3310m21166.16427mECoRBerhampur, Odisha
28IPMIchchapuramX  23:13+3123:14+321m--1190.57721mECoRIchchapuram, Andhra Pradesh
29SPTSompeta (4)XO  23:28+2523:29+261m--1208.53948mECoRKanchili, Andhra Pradesh
30PSAPalasa (3)X  00:18+1300:20+132m--2240.46731mECoRKasibugga, Andhra Pradesh
31NWPNaupada Junction  00:43+2500:44+271m--2266.27913mECoRNuapada . ph.no. 08945-249728, Andhra Pradesh
32CHESrikakulam Road (4)  01:20+2401:22+252m--2313.47534mECoRsrikakulam road ph .no. 08942-287222, Andhra Pradesh
33CPPChipurupalleX  01:53+2301:54+241m--2352.05199mECoRCheepurupalli, Andhra Pradesh
34VZMVizianagaram Junction (5)  02:30+1902:35+205m--2382.97563mECoRVizianagaram, Andhra Pradesh
35KTVKottavalasa Junction (5)  03:03+2503:04+271m--2417.96458mECoRVizianagaram District, Andhra Pradesh
36SCMSimhachalam (2)  03:21+1903:22+201m--2436.02127mECoRVisakhapatnam, Andhra Pradesh
37VSKPVisakhapatnam Junction (8)X03:45+1904:05+1820m32444.13511mECoRVishakhapatnam 530001, Andhra Pradesh
38DVDDuvvada (4)X  04:33+1804:35+182m12460.45346mECoRVishakhapatnam District, Andhra Pradesh
39AKPAnakapalle (3)  04:53+2104:54+221m22476.47130mSCRAnakapalle ph.no . 08924-221698, Andhra Pradesh
40YLMElamanchili (2)X  05:14+2505:15+271m12500.18623mSCRVisakhapatnam District, Andhra Pradesh
41TUNITuni (2)  05:43+3505:44+361m12540.27124mSCRTuni ph.no. 08854-252172, Andhra Pradesh
42ANVAnnavaram (3)  05:58+3805:59+401m12556.87427mSCREast Godavari District, Andhra Pradesh
43PAPPithapuram (2)  06:19+4206:20+471m12581.65222mSCREast Godavari District, Andhra Pradesh
44SLOSamalkot Junction (3)  06:34+4606:35+471m32593.76318mSCRSamalkot, Andhra Pradesh
45DWPDwarapudi (3)07:04+4407:05+471m--2624.03220mSCREast Godavari District, Andhra Pradesh
46RJYRajahmundry (3)  07:42+4107:44+432m12643.95523mSCRRajahmundry ph.no. 0883-2420541, Andhra Pradesh
47NDDNidadavolu Junction (3)X  08:08+5208:09+521m22666.07120mSCRNidadavolu jtn ph.no. 08813-210325, Andhra Pradesh
48TDDTadepalligudem (3)  08:26+5308:27+541m32686.08718mSCRTadepalligudem, Andhra Pradesh
49EEEluru (3)  09:00+5809:01+591m32733.83019mSCREluru Ph.no. 08812 226401., Andhra Pradesh
50BZAVijayawada Junction (10)X11:00+2711:20+3220m12793.28624mSCRVijayawada 520001, Andhra Pradesh
51KMTKhammam (2)  12:30+5712:32+582m22893.566118mSCRKhammam 507001, Andhra Pradesh
52MABDMahbubabad (2)  13:15+5813:16+1:001m22941.069200mSCRMahbubabad, Andhra Pradesh
53WLWarangal (3)  14:08+1:0414:10+1:072m221001.120271mSCRWarangal., Andhra Pradesh
54KZJKazipet Junction (3)X  14:40+5614:42+592m321011.359292mSCRKazipet, Andhra Pradesh
55ZNJangaon (2)  15:31+1:0115:32+1:021m121059.239380mSCRRly Stn Rd. Jangaon, Andhra Pradesh
56ALERAler (2)  15:55+5215:56+521m221074.245366mSCRAleru, Andhra Pradesh
57BGBhongir (3)X  16:26+4716:27+471m121096.530455mSCRBhongir, Andhra Pradesh
58SC•Secunderabad Junction (10)•X  18:00+1718:05+185m521142.922539mSCRSecunderabad 500003, Andhra Pradesh
59HYBHyderabad Deccan Nampally (6)  18:30+18-521152.1-510mSCRHyderabad, Andhra Pradesh
Scroll to Top
Scroll to Bottom